createdAt,value
2018-04-18T00:02:07.398Z,34.57
2018-04-18T00:04:34.952Z,32.73
2018-04-18T00:07:02.431Z,32.67
2018-04-18T00:09:29.965Z,32.93
2018-04-18T00:11:57.506Z,34.00
2018-04-18T00:14:25.017Z,34.67
2018-04-18T00:16:52.543Z,28.53
2018-04-18T00:19:20.090Z,37.23
2018-04-18T00:21:47.619Z,34.13
2018-04-18T00:24:15.150Z,33.17
2018-04-18T00:26:42.703Z,29.57
2018-04-18T00:29:10.215Z,30.83
2018-04-18T00:31:37.706Z,30.33
2018-04-18T00:34:05.219Z,36.70
2018-04-18T00:36:32.714Z,32.13
2018-04-18T00:39:00.275Z,36.97
2018-04-18T00:41:28.553Z,34.30
2018-04-18T00:43:56.070Z,37.67
2018-04-18T00:46:23.615Z,35.20
2018-04-18T00:48:51.935Z,36.40
2018-04-18T00:51:20.522Z,37.30
2018-04-18T00:53:48.044Z,35.83
2018-04-18T00:56:15.551Z,36.20
2018-04-18T00:58:43.125Z,36.87
2018-04-18T01:01:10.614Z,34.80
2018-04-18T01:03:38.145Z,34.27
2018-04-18T01:06:06.435Z,37.40
2018-04-18T01:08:34.690Z,39.80
2018-04-18T01:11:02.174Z,36.27
2018-04-18T01:13:29.648Z,32.97
2018-04-18T01:15:57.188Z,40.10
2018-04-18T01:18:24.696Z,32.23
2018-04-18T01:20:52.194Z,36.07
2018-04-18T01:23:20.460Z,29.90
2018-04-18T01:25:48.695Z,36.43
2018-04-18T01:28:16.226Z,36.90
2018-04-18T01:30:43.787Z,36.97
2018-04-18T01:33:11.315Z,30.87
2018-04-18T01:35:39.574Z,32.40
2018-04-18T01:38:07.073Z,29.47
2018-04-18T01:40:34.535Z,32.53
2018-04-18T01:43:02.071Z,33.07
2018-04-18T01:45:30.318Z,32.07
2018-04-18T01:47:57.847Z,31.97
2018-04-18T01:50:25.392Z,32.43
2018-04-18T01:52:52.885Z,32.90
2018-04-18T01:55:20.426Z,37.37
2018-04-18T01:57:47.930Z,33.73
2018-04-18T02:00:16.218Z,36.37
2018-04-18T02:02:44.512Z,35.70
2018-04-18T02:05:11.997Z,36.07
2018-04-18T02:07:39.516Z,42.10
2018-04-18T02:10:07.782Z,33.67
2018-04-18T02:12:35.350Z,31.23
2018-04-18T02:15:02.860Z,38.40
2018-04-18T02:17:30.385Z,33.27
2018-04-18T02:19:57.900Z,33.67
2018-04-18T02:22:26.154Z,35.07
2018-04-18T02:24:53.703Z,39.70
2018-04-18T02:27:21.203Z,31.87
2018-04-18T02:29:49.460Z,35.57
2018-04-18T02:32:16.923Z,39.10
2018-04-18T02:34:45.167Z,33.40
2018-04-18T02:37:12.716Z,34.67
2018-04-18T02:39:41.004Z,37.20
2018-04-18T02:42:08.547Z,35.40
2018-04-18T02:44:36.066Z,41.63
2018-04-18T02:47:03.589Z,38.17
2018-04-18T02:49:31.101Z,39.67
2018-04-18T02:51:58.927Z,40.07
2018-04-18T02:54:26.522Z,41.30
2018-04-18T02:56:54.029Z,36.20
2018-04-18T02:59:21.543Z,35.27
2018-04-18T03:01:49.047Z,31.53
2018-04-18T03:04:16.514Z,30.97
2018-04-18T03:06:44.782Z,26.90
2018-04-18T03:09:12.278Z,31.43
2018-04-18T03:11:39.764Z,34.60
2018-04-18T03:14:07.279Z,36.63
2018-04-18T03:16:35.575Z,28.70
2018-04-18T03:19:03.072Z,26.47
2018-04-18T03:21:32.195Z,25.67
2018-04-18T03:24:00.437Z,37.50
2018-04-18T03:26:28.685Z,34.77
2018-04-18T03:28:56.248Z,30.37
2018-04-18T03:31:23.776Z,34.17
2018-04-18T03:33:52.061Z,31.60
2018-04-18T03:36:19.538Z,35.00
2018-04-18T03:38:47.044Z,53.40
2018-04-18T03:41:14.567Z,49.00
2018-04-18T03:43:42.089Z,58.70
2018-04-18T03:46:10.375Z,51.57
2018-04-18T03:48:37.899Z,59.30
2018-04-18T03:51:05.393Z,52.43
2018-04-18T03:53:32.857Z,43.23
2018-04-18T03:56:00.349Z,39.33
2018-04-18T03:58:27.883Z,62.60
2018-04-18T04:00:55.409Z,44.00
2018-04-18T04:03:23.688Z,43.47
2018-04-18T04:05:51.974Z,44.13
2018-04-18T04:08:19.454Z,35.80
2018-04-18T04:10:46.941Z,52.97
2018-04-18T04:13:14.440Z,44.80
2018-04-18T04:15:41.913Z,50.23
2018-04-18T04:18:21.201Z,55.83
2018-04-18T04:21:00.534Z,32.37
2018-04-18T04:23:40.194Z,33.40
2018-04-18T04:26:08.440Z,25.17
2018-04-18T04:28:35.973Z,27.40
2018-04-18T04:31:03.507Z,32.93
2018-04-18T04:33:31.015Z,52.33
2018-04-18T04:35:58.547Z,34.50
2018-04-18T04:38:26.029Z,38.83
2018-04-18T04:40:53.623Z,36.33
2018-04-18T04:43:21.853Z,48.80
2018-04-18T04:45:49.421Z,44.67
2018-04-18T04:48:16.905Z,40.37
2018-04-18T04:50:45.196Z,37.77
2018-04-18T04:53:12.715Z,41.47
2018-04-18T04:55:40.214Z,35.97
2018-04-18T04:58:07.788Z,49.40
2018-04-18T05:00:35.308Z,36.60
2018-04-18T05:03:03.716Z,40.80
2018-04-18T05:05:31.310Z,56.43
2018-04-18T05:07:58.900Z,35.23
2018-04-18T05:10:26.461Z,31.53
2018-04-18T05:12:53.987Z,40.13
2018-04-18T05:15:21.496Z,34.33
2018-04-18T05:17:49.102Z,32.90
2018-04-18T05:20:16.655Z,101.77
2018-04-18T05:22:44.511Z,23.33
2018-04-18T05:25:12.459Z,20.10
2018-04-18T05:27:40.008Z,30.47
2018-04-18T05:30:08.353Z,18.07
2018-04-18T05:32:35.883Z,20.47
2018-04-18T05:35:04.186Z,15.33
2018-04-18T05:37:31.722Z,22.37
2018-04-18T05:40:00.041Z,35.87
2018-04-18T05:42:27.517Z,15.97
2018-04-18T05:44:55.788Z,18.93
2018-04-18T05:47:23.329Z,15.37
2018-04-18T05:49:50.821Z,17.80
2018-04-18T05:52:18.348Z,88.77
2018-04-18T05:54:45.879Z,17.00
2018-04-18T05:57:13.424Z,19.53
2018-04-18T05:59:41.773Z,24.70
2018-04-18T06:02:09.257Z,20.13
2018-04-18T06:04:37.592Z,18.23
2018-04-18T06:07:05.097Z,16.43
2018-04-18T06:09:32.589Z,15.73
2018-04-18T06:12:00.124Z,16.53
2018-04-18T06:14:27.671Z,17.30
2018-04-18T06:16:55.944Z,19.53
2018-04-18T06:19:24.225Z,14.43
2018-04-18T06:21:51.733Z,22.10
2018-04-18T06:24:19.244Z,19.27
2018-04-18T06:26:47.514Z,17.67
2018-04-18T06:29:15.807Z,19.27
2018-04-18T06:31:43.323Z,19.73
2018-04-18T06:34:10.863Z,18.67
2018-04-18T06:36:38.366Z,16.30
2018-04-18T06:39:06.687Z,14.95
2018-04-18T06:41:34.222Z,25.67
2018-04-18T06:44:01.744Z,14.85
2018-04-18T06:46:30.024Z,77.47
2018-04-18T06:48:58.273Z,17.10
2018-04-18T06:51:25.775Z,17.27
2018-04-18T06:53:53.317Z,15.82
2018-04-18T06:56:21.607Z,15.75
2018-04-18T06:58:49.181Z,16.23
2018-04-18T07:01:16.712Z,25.05
2018-04-18T07:03:44.998Z,17.70
2018-04-18T07:06:13.306Z,18.65
2018-04-18T07:08:40.880Z,17.95
2018-04-18T07:11:08.436Z,17.35
2018-04-18T07:13:35.963Z,16.37
2018-04-18T07:16:03.485Z,18.40
2018-04-18T07:18:30.986Z,18.05
2018-04-18T07:20:58.479Z,17.48
2018-04-18T07:23:25.982Z,24.63
2018-04-18T07:25:53.543Z,17.25
2018-04-18T07:28:21.811Z,17.25
2018-04-18T07:30:50.055Z,17.35
2018-04-18T07:33:17.588Z,25.37
2018-04-18T07:35:45.104Z,18.48
2018-04-18T07:38:13.395Z,17.75
2018-04-18T07:40:40.924Z,22.08
2018-04-18T07:43:08.478Z,17.37
2018-04-18T07:45:35.991Z,18.67
2018-04-18T07:48:03.525Z,21.48
2018-04-18T07:50:31.041Z,18.02
2018-04-18T07:52:58.606Z,18.15
2018-04-18T07:55:26.107Z,18.25
2018-04-18T07:57:53.647Z,18.62
2018-04-18T08:00:21.967Z,28.33
2018-04-18T08:02:50.230Z,22.45
2018-04-18T08:05:17.792Z,18.87
2018-04-18T08:07:45.353Z,21.98
2018-04-18T08:10:12.922Z,19.85
2018-04-18T08:12:40.430Z,34.40
2018-04-18T08:15:07.929Z,21.27
2018-04-18T08:17:35.449Z,20.65
2018-04-18T08:20:03.731Z,21.70
2018-04-18T08:22:31.967Z,19.00
2018-04-18T08:24:59.512Z,31.92
2018-04-18T08:27:27.025Z,20.52
2018-04-18T08:29:54.563Z,23.15
2018-04-18T08:32:22.829Z,19.35
2018-04-18T08:34:50.340Z,20.12
2018-04-18T08:37:17.871Z,18.10
2018-04-18T08:39:46.168Z,13.00
2018-04-18T08:42:13.638Z,22.13
2018-04-18T08:44:41.124Z,13.52
2018-04-18T08:47:08.641Z,11.23
2018-04-18T08:49:36.204Z,11.73
2018-04-18T08:52:03.724Z,13.82
2018-04-18T08:54:31.960Z,13.45
2018-04-18T08:56:59.470Z,14.45
2018-04-18T08:59:26.991Z,12.37
2018-04-18T09:01:54.532Z,14.00
2018-04-18T09:04:22.071Z,11.40
2018-04-18T09:06:49.564Z,10.88
2018-04-18T09:09:17.043Z,13.07
2018-04-18T09:11:45.316Z,12.85
2018-04-18T09:14:13.589Z,13.05
2018-04-18T09:16:41.864Z,12.43
2018-04-18T09:19:10.160Z,12.00
2018-04-18T09:21:38.408Z,15.93
2018-04-18T09:24:05.880Z,11.77
2018-04-18T09:26:34.148Z,12.07
2018-04-18T09:29:01.644Z,28.67
2018-04-18T09:31:29.110Z,11.33
2018-04-18T09:33:56.611Z,12.40
2018-04-18T09:36:24.140Z,11.77
2018-04-18T09:38:51.636Z,11.87
2018-04-18T09:41:19.177Z,12.50
2018-04-18T09:43:46.657Z,9.97
2018-04-18T09:46:14.924Z,11.33
2018-04-18T09:48:43.232Z,10.00
2018-04-18T09:51:10.742Z,11.17
2018-04-18T09:53:38.268Z,10.63
2018-04-18T09:56:05.820Z,9.83
2018-04-18T09:58:33.366Z,9.60
2018-04-18T10:01:00.884Z,8.93
2018-04-18T10:03:28.373Z,9.50
2018-04-18T10:05:55.875Z,9.37
2018-04-18T10:08:23.399Z,11.33
2018-04-18T10:10:50.866Z,10.63
2018-04-18T10:13:18.357Z,32.00
2018-04-18T10:15:45.866Z,13.37
2018-04-18T10:18:13.373Z,13.90
2018-04-18T10:20:40.897Z,10.67
2018-04-18T10:23:08.386Z,12.57
2018-04-18T10:25:35.896Z,11.13
2018-04-18T10:28:03.373Z,11.67
2018-04-18T10:30:30.900Z,12.10
2018-04-18T10:32:59.199Z,12.73
2018-04-18T10:35:26.697Z,9.13
2018-04-18T10:37:54.174Z,9.80
2018-04-18T10:40:21.638Z,7.43
2018-04-18T10:42:49.936Z,8.13
2018-04-18T10:45:17.412Z,11.13
2018-04-18T10:47:44.930Z,11.33
2018-04-18T10:50:13.171Z,9.63
2018-04-18T10:52:40.654Z,21.70
2018-04-18T10:55:08.768Z,18.43
2018-04-18T10:57:36.242Z,9.97
2018-04-18T11:00:03.770Z,9.83
2018-04-18T11:02:31.288Z,7.33
2018-04-18T11:04:58.746Z,12.10
2018-04-18T11:07:26.260Z,8.77
2018-04-18T11:09:53.748Z,9.23
2018-04-18T11:12:21.265Z,8.53
2018-04-18T11:14:48.766Z,11.30
2018-04-18T11:17:16.314Z,10.03
2018-04-18T11:19:43.782Z,7.60
2018-04-18T11:22:11.324Z,8.30
2018-04-18T11:24:38.786Z,6.07
2018-04-18T11:27:06.299Z,13.47
2018-04-18T11:29:34.600Z,9.97
2018-04-18T11:32:02.072Z,7.20
2018-04-18T11:34:29.562Z,8.27
2018-04-18T11:36:57.071Z,8.13
2018-04-18T11:39:24.575Z,8.37
2018-04-18T11:41:52.087Z,7.20
2018-04-18T11:44:19.548Z,8.50
2018-04-18T11:46:47.045Z,8.90
2018-04-18T11:49:14.582Z,9.60
2018-04-18T11:51:42.083Z,6.70
2018-04-18T11:54:10.375Z,8.23
2018-04-18T11:56:37.900Z,9.33
2018-04-18T11:59:05.367Z,8.87
2018-04-18T12:01:33.624Z,7.00
2018-04-18T12:04:01.192Z,7.43
2018-04-18T12:06:28.650Z,7.00
2018-04-18T12:08:56.117Z,6.07
2018-04-18T12:11:24.424Z,9.00
2018-04-18T12:13:51.952Z,10.00
2018-04-18T12:16:20.214Z,6.90
2018-04-18T12:18:47.742Z,13.83
2018-04-18T12:21:15.250Z,5.73
2018-04-18T12:23:43.535Z,7.03
2018-04-18T12:26:11.052Z,6.77
2018-04-18T12:28:38.563Z,7.43
2018-04-18T12:31:06.050Z,6.87
2018-04-18T12:33:33.618Z,6.53
2018-04-18T12:36:01.116Z,7.50
2018-04-18T12:38:29.438Z,6.80
2018-04-18T12:40:56.972Z,9.53
2018-04-18T12:43:24.610Z,6.57
2018-04-18T12:45:52.867Z,8.07
2018-04-18T12:48:20.374Z,7.60
2018-04-18T12:50:47.880Z,8.27
2018-04-18T12:53:15.411Z,7.93
2018-04-18T12:55:42.919Z,8.23
2018-04-18T12:58:10.455Z,6.83
2018-04-18T13:00:38.123Z,7.30
2018-04-18T13:03:06.542Z,8.37
2018-04-18T13:05:34.063Z,8.40
2018-04-18T13:08:02.362Z,11.23
2018-04-18T13:10:29.891Z,7.83
2018-04-18T13:12:57.442Z,5.90
2018-04-18T13:15:24.997Z,7.27
2018-04-18T13:17:52.601Z,13.80
2018-04-18T13:20:20.110Z,10.13
2018-04-18T13:22:47.582Z,7.93
2018-04-18T13:25:15.161Z,9.40
2018-04-18T13:27:42.682Z,9.50
2018-04-18T13:30:10.231Z,8.63
2018-04-18T13:32:38.537Z,9.93
2018-04-18T13:35:06.069Z,7.37
2018-04-18T13:37:33.539Z,9.27
2018-04-18T13:40:01.092Z,7.27
2018-04-18T13:42:28.672Z,5.93
2018-04-18T13:44:56.175Z,8.40
2018-04-18T13:47:23.697Z,8.03
2018-04-18T13:49:52.030Z,48.20
2018-04-18T13:52:19.508Z,9.00
2018-04-18T13:54:47.027Z,6.53
2018-04-18T13:57:14.492Z,7.10
2018-04-18T13:59:41.976Z,7.90
2018-04-18T14:02:09.499Z,7.87
2018-04-18T14:04:36.958Z,6.57
2018-04-18T14:07:04.473Z,5.07
2018-04-18T14:09:32.730Z,5.47
2018-04-18T14:12:00.264Z,6.27
2018-04-18T14:14:27.796Z,5.23
2018-04-18T14:16:55.259Z,5.20
2018-04-18T14:19:22.728Z,6.43
2018-04-18T14:21:50.243Z,4.97
2018-04-18T14:24:18.543Z,7.87
2018-04-18T14:26:46.036Z,4.57
2018-04-18T14:29:13.547Z,5.50
2018-04-18T14:31:41.089Z,4.47
2018-04-18T14:34:09.366Z,6.43
2018-04-18T14:36:36.904Z,6.10
2018-04-18T14:39:04.420Z,29.27
2018-04-18T14:41:31.938Z,4.43
2018-04-18T14:44:00.226Z,4.60
2018-04-18T14:46:28.474Z,12.43
2018-04-18T14:48:56.000Z,3.70
2018-04-18T14:51:23.569Z,6.63
2018-04-18T14:53:51.063Z,6.57
2018-04-18T14:56:19.302Z,6.07
2018-04-18T14:58:46.774Z,5.73
2018-04-18T15:01:14.298Z,5.57
2018-04-18T15:03:41.815Z,6.50
2018-04-18T15:06:10.078Z,5.30
2018-04-18T15:08:37.638Z,4.10
2018-04-18T15:11:05.130Z,4.63
2018-04-18T15:13:32.603Z,8.77
2018-04-18T15:16:00.119Z,7.00
2018-04-18T15:18:28.376Z,4.30
2018-04-18T15:20:55.911Z,4.60
2018-04-18T15:23:23.379Z,6.90
2018-04-18T15:25:50.857Z,8.17
2018-04-18T15:28:19.180Z,5.83
2018-04-18T15:30:46.632Z,7.67
2018-04-18T15:33:14.161Z,8.03
2018-04-18T15:35:42.449Z,4.77
2018-04-18T15:38:10.683Z,43.33
2018-04-18T15:40:38.225Z,110.93
2018-04-18T15:43:05.791Z,4.77
2018-04-18T15:45:34.098Z,4.00
2018-04-18T15:48:01.598Z,3.50
2018-04-18T15:50:29.132Z,6.57
2018-04-18T15:52:56.612Z,8.97
2018-04-18T15:55:24.080Z,7.77
2018-04-18T15:57:51.569Z,4.77
2018-04-18T16:00:19.069Z,7.83
2018-04-18T16:02:46.562Z,5.83
2018-04-18T16:05:14.079Z,6.87
2018-04-18T16:07:42.368Z,7.40
2018-04-18T16:10:09.871Z,6.73
2018-04-18T16:12:37.358Z,6.57
2018-04-18T16:15:05.655Z,5.13
2018-04-18T16:17:33.121Z,4.50
2018-04-18T16:20:00.648Z,5.60
2018-04-18T16:22:28.930Z,5.50
2018-04-18T16:24:56.446Z,5.20
2018-04-18T16:27:23.930Z,3.57
2018-04-18T16:29:51.403Z,5.13
2018-04-18T16:32:19.685Z,4.43
2018-04-18T16:34:47.980Z,8.00
2018-04-18T16:37:15.463Z,6.03
2018-04-18T16:39:43.049Z,5.13
2018-04-18T16:42:10.514Z,7.03
2018-04-18T16:44:38.764Z,6.37
2018-04-18T16:47:06.327Z,7.00
2018-04-18T16:49:33.883Z,5.40
2018-04-18T16:52:01.391Z,5.30
2018-04-18T16:54:28.913Z,9.53
2018-04-18T16:56:56.405Z,5.63
2018-04-18T16:59:23.924Z,6.90
2018-04-18T17:01:51.427Z,4.80
2018-04-18T17:04:18.947Z,5.73
2018-04-18T17:06:46.503Z,8.63
2018-04-18T17:09:14.029Z,6.57
2018-04-18T17:11:42.224Z,6.57
2018-04-18T17:14:09.715Z,5.33
2018-04-18T17:16:37.979Z,4.50
2018-04-18T17:19:05.481Z,4.50
2018-04-18T17:21:33.006Z,4.23
2018-04-18T17:24:00.507Z,3.60
2018-04-18T17:26:27.993Z,6.37
2018-04-18T17:28:55.507Z,5.77
2018-04-18T17:31:23.003Z,7.43
2018-04-18T17:33:50.597Z,5.30
2018-04-18T17:36:18.026Z,3.40
2018-04-18T17:38:45.566Z,5.67
2018-04-18T17:41:13.073Z,6.23
2018-04-18T17:43:41.368Z,4.17
2018-04-18T17:46:08.870Z,3.50
2018-04-18T17:48:36.436Z,3.70
2018-04-18T17:51:03.914Z,4.70
2018-04-18T17:53:31.523Z,4.87
2018-04-18T17:55:59.050Z,7.50
2018-04-18T17:58:26.588Z,8.80
2018-04-18T18:00:54.887Z,29.47
2018-04-18T18:03:22.372Z,41.60
2018-04-18T18:05:49.911Z,8.93
2018-04-18T18:08:17.422Z,6.80
2018-04-18T18:10:44.951Z,10.33
2018-04-18T18:13:12.441Z,9.37
2018-04-18T18:15:39.987Z,7.67
2018-04-18T18:18:07.495Z,7.93
2018-04-18T18:20:34.985Z,7.40
2018-04-18T18:23:02.485Z,9.23
2018-04-18T18:25:30.786Z,12.50
2018-04-18T18:27:59.041Z,12.17
2018-04-18T18:30:27.317Z,8.47
2018-04-18T18:32:55.587Z,10.90
2018-04-18T18:35:23.870Z,6.23
2018-04-18T18:37:52.139Z,9.83
2018-04-18T18:40:20.419Z,7.83
2018-04-18T18:42:47.961Z,11.27
2018-04-18T18:45:15.438Z,5.87
2018-04-18T18:47:43.717Z,7.47
2018-04-18T18:50:12.011Z,10.10
2018-04-18T18:52:39.541Z,7.87
2018-04-18T18:55:07.859Z,9.70
2018-04-18T18:57:35.335Z,7.73
2018-04-18T19:00:02.909Z,7.97
2018-04-18T19:02:30.352Z,8.23
2018-04-18T19:04:58.642Z,6.77
2018-04-18T19:07:26.179Z,6.83
2018-04-18T19:09:53.690Z,13.23
2018-04-18T19:12:21.980Z,7.50
2018-04-18T19:14:49.543Z,10.50
2018-04-18T19:17:17.035Z,10.60
2018-04-18T19:19:45.322Z,9.93
2018-04-18T19:22:12.832Z,12.97
2018-04-18T19:24:40.351Z,7.40
2018-04-18T19:27:07.876Z,9.97
2018-04-18T19:29:35.346Z,9.53
2018-04-18T19:32:02.829Z,10.40
2018-04-18T19:34:30.327Z,9.73
2018-04-18T19:36:57.876Z,9.33
2018-04-18T19:39:25.429Z,15.90
2018-04-18T19:41:52.979Z,15.07
2018-04-18T19:44:20.489Z,16.30
2018-04-18T19:46:48.002Z,20.50
2018-04-18T19:49:16.285Z,15.17
2018-04-18T19:51:43.779Z,14.33
2018-04-18T19:54:11.317Z,14.00
2018-04-18T19:56:38.811Z,10.87
2018-04-18T19:59:06.341Z,19.13
2018-04-18T20:01:33.856Z,17.07
2018-04-18T20:04:02.177Z,23.13
2018-04-18T20:06:29.735Z,16.90
2018-04-18T20:08:57.260Z,11.53
2018-04-18T20:11:25.543Z,13.60
2018-04-18T20:13:53.830Z,14.33
2018-04-18T20:16:21.347Z,10.97
2018-04-18T20:18:48.827Z,16.03
2018-04-18T20:21:17.117Z,14.87
2018-04-18T20:23:44.590Z,12.30
2018-04-18T20:26:12.114Z,14.77
2018-04-18T20:28:40.354Z,12.90
2018-04-18T20:31:07.863Z,14.67
2018-04-18T20:33:35.400Z,14.67
2018-04-18T20:36:03.670Z,17.93
2018-04-18T20:38:31.150Z,13.37
2018-04-18T20:40:58.646Z,14.53
2018-04-18T20:43:26.133Z,13.23
2018-04-18T20:45:53.658Z,16.87
2018-04-18T20:48:21.140Z,14.47
2018-04-18T20:50:48.638Z,18.10
2018-04-18T20:53:16.900Z,17.20
2018-04-18T20:55:45.196Z,13.33
2018-04-18T20:58:12.710Z,12.67
2018-04-18T21:00:40.255Z,12.13
2018-04-18T21:03:07.777Z,12.47
2018-04-18T21:05:35.286Z,11.70
2018-04-18T21:08:02.817Z,12.27
2018-04-18T21:10:30.339Z,12.67
2018-04-18T21:12:57.875Z,14.77
2018-04-18T21:15:25.443Z,15.03
2018-04-18T21:17:52.927Z,13.60
2018-04-18T21:20:20.413Z,11.57
2018-04-18T21:22:47.904Z,13.40
2018-04-18T21:25:16.216Z,12.93
2018-04-18T21:27:43.803Z,12.17
2018-04-18T21:30:11.339Z,12.53
2018-04-18T21:32:38.862Z,11.90
2018-04-18T21:35:07.136Z,12.43
2018-04-18T21:37:35.409Z,13.97
2018-04-18T21:40:03.666Z,12.17
2018-04-18T21:42:31.206Z,11.10
2018-04-18T21:44:58.687Z,12.10
2018-04-18T21:47:26.183Z,10.53
2018-04-18T21:49:53.664Z,13.93
2018-04-18T21:52:21.144Z,11.13
2018-04-18T21:54:48.688Z,12.80
2018-04-18T21:57:16.195Z,13.77
2018-04-18T21:59:44.469Z,13.70
2018-04-18T22:02:12.726Z,12.00
2018-04-18T22:04:41.764Z,11.73
2018-04-18T22:09:43.371Z,13.07
2018-04-18T22:12:15.790Z,12.27
2018-04-18T22:14:44.068Z,16.57
2018-04-18T22:17:11.597Z,14.83
2018-04-18T22:19:39.046Z,11.80
2018-04-18T22:22:06.615Z,11.30
2018-04-18T22:24:34.125Z,10.83
2018-04-18T22:27:01.821Z,11.40
2018-04-18T22:29:29.366Z,14.83
2018-04-18T22:31:56.868Z,13.23
2018-04-18T22:34:25.178Z,11.13
2018-04-18T22:36:52.741Z,14.87
2018-04-18T22:39:21.127Z,13.07
2018-04-18T22:41:48.699Z,13.90
2018-04-18T22:44:16.630Z,12.77
2018-04-18T22:46:44.145Z,12.00
2018-04-18T22:49:11.687Z,12.30
2018-04-18T22:51:39.196Z,14.63
2018-04-18T22:54:07.534Z,13.73
2018-04-18T22:56:35.068Z,10.57
2018-04-18T22:59:02.573Z,12.50
2018-04-18T23:01:30.882Z,12.77
2018-04-18T23:03:58.431Z,11.63
2018-04-18T23:06:25.941Z,15.90
2018-04-18T23:08:53.463Z,15.30
2018-04-18T23:11:20.945Z,14.43
2018-04-18T23:13:48.582Z,14.03
2018-04-18T23:16:16.116Z,15.27
2018-04-18T23:18:43.687Z,13.30
2018-04-18T23:21:12.003Z,12.87
2018-04-18T23:23:39.648Z,14.50
2018-04-18T23:26:07.147Z,11.90
2018-04-18T23:28:34.746Z,12.37
2018-04-18T23:31:02.227Z,12.67
2018-04-18T23:33:29.725Z,12.53
2018-04-18T23:35:58.016Z,13.50
2018-04-18T23:38:26.321Z,10.93
2018-04-18T23:40:53.811Z,14.53
2018-04-18T23:43:21.474Z,15.77
2018-04-18T23:45:48.949Z,11.60
2018-04-18T23:48:17.198Z,14.53
2018-04-18T23:50:44.679Z,11.73
2018-04-18T23:53:12.228Z,12.27
2018-04-18T23:55:39.717Z,17.33
2018-04-18T23:58:08.023Z,13.50
